<?xml version="1.0" encoding="UTF-8" standalone="no" ?>
<gpx xmlns="http://www.topografix.com/GPX/1/1" xmlns:xsi="http://www.w3.org/2001/XMLSchema-instance" xsi:schemaLocation="http://www.topografix.com/GPX/1/1 http://www.topografix.com/GPX/1/1/gpx.xsd" version="1.1" creator="VisuGPX - https://www.visugpx.com">
  <metadata>
    <name>ARQUES LA SEYNE SUR MER 1497 KM</name>
    <desc><![CDATA[Rando de Arques dans le Pas de Calais jusque La Seyne sur Mer dans le Var, 1497 km]]></desc>
  </metadata>
  <trk>
    <name><![CDATA[3 - Parc Hollain - Maroeuil 29.0 km]]></name>
    <extensions>
      <line xmlns="http://www.topografix.com/GPX/gpx_style/0/2">
        <color>FF0000</color>
        <width>4</width>
      </line>
    </extensions>
    <trkseg>
      <trkpt lat="50.43709" lon="2.58276">
        <ele>181</ele>
        <time>2021-10-05T10:43:35+02:00</time>
      </trkpt>
      <trkpt lat="50.43703" lon="2.58389">
        <ele>181</ele>
        <time>2021-10-05T10:43:40+02:00</time>
      </trkpt>
      <trkpt lat="50.43649" lon="2.58408">
        <ele>182</ele>
        <time>2021-10-05T10:43:45+02:00</time>
      </trkpt>
      <trkpt lat="50.43649" lon="2.58554">
        <ele>182</ele>
        <time>2021-10-05T10:43:50+02:00</time>
      </trkpt>
      <trkpt lat="50.43619" lon="2.58616">
        <ele>184</ele>
        <time>2021-10-05T10:43:55+02:00</time>
      </trkpt>
      <trkpt lat="50.4361" lon="2.58686">
        <ele>185</ele>
        <time>2021-10-05T10:44:00+02:00</time>
      </trkpt>
      <trkpt lat="50.43535" lon="2.58776">
        <ele>192</ele>
        <time>2021-10-05T10:44:05+02:00</time>
      </trkpt>
      <trkpt lat="50.43394" lon="2.58644">
        <ele>181</ele>
        <time>2021-10-05T10:44:10+02:00</time>
      </trkpt>
      <trkpt lat="50.4334" lon="2.587">
        <ele>175</ele>
        <time>2021-10-05T10:44:15+02:00</time>
      </trkpt>
      <trkpt lat="50.43232" lon="2.59087">
        <ele>161</ele>
        <time>2021-10-05T10:44:20+02:00</time>
      </trkpt>
      <trkpt lat="50.43287" lon="2.59235">
        <ele>158</ele>
        <time>2021-10-05T10:44:25+02:00</time>
      </trkpt>
      <trkpt lat="50.4325" lon="2.59483">
        <ele>144</ele>
        <time>2021-10-05T10:44:30+02:00</time>
      </trkpt>
      <trkpt lat="50.43256" lon="2.59646">
        <ele>146</ele>
        <time>2021-10-05T10:44:35+02:00</time>
      </trkpt>
      <trkpt lat="50.43152" lon="2.59621">
        <ele>140</ele>
        <time>2021-10-05T10:44:40+02:00</time>
      </trkpt>
      <trkpt lat="50.43088" lon="2.60042">
        <ele>173</ele>
        <time>2021-10-05T10:44:45+02:00</time>
      </trkpt>
      <trkpt lat="50.42808" lon="2.60186">
        <ele>164</ele>
        <time>2021-10-05T10:44:50+02:00</time>
      </trkpt>
      <trkpt lat="50.42736" lon="2.59727">
        <ele>126</ele>
        <time>2021-10-05T10:44:55+02:00</time>
      </trkpt>
      <trkpt lat="50.42556" lon="2.59634">
        <ele>107</ele>
        <time>2021-10-05T10:45:00+02:00</time>
      </trkpt>
      <trkpt lat="50.42474" lon="2.59682">
        <ele>112</ele>
        <time>2021-10-05T10:45:05+02:00</time>
      </trkpt>
      <trkpt lat="50.42446" lon="2.59865">
        <ele>124</ele>
        <time>2021-10-05T10:45:10+02:00</time>
      </trkpt>
      <trkpt lat="50.42444" lon="2.59974">
        <ele>129</ele>
        <time>2021-10-05T10:45:15+02:00</time>
      </trkpt>
      <trkpt lat="50.42394" lon="2.60128">
        <ele>144</ele>
        <time>2021-10-05T10:45:20+02:00</time>
      </trkpt>
      <trkpt lat="50.42405" lon="2.60183">
        <ele>152</ele>
        <time>2021-10-05T10:45:25+02:00</time>
      </trkpt>
      <trkpt lat="50.42343" lon="2.60279">
        <ele>165</ele>
        <time>2021-10-05T10:45:30+02:00</time>
      </trkpt>
      <trkpt lat="50.42239" lon="2.60199">
        <ele>160</ele>
        <time>2021-10-05T10:45:35+02:00</time>
      </trkpt>
      <trkpt lat="50.42184" lon="2.60218">
        <ele>164</ele>
        <time>2021-10-05T10:45:40+02:00</time>
      </trkpt>
      <trkpt lat="50.42128" lon="2.60437">
        <ele>184</ele>
        <time>2021-10-05T10:45:45+02:00</time>
      </trkpt>
      <trkpt lat="50.41995" lon="2.60703">
        <ele>183</ele>
        <time>2021-10-05T10:45:50+02:00</time>
      </trkpt>
      <trkpt lat="50.42034" lon="2.61082">
        <ele>179</ele>
        <time>2021-10-05T10:45:55+02:00</time>
      </trkpt>
      <trkpt lat="50.42044" lon="2.61147">
        <ele>174</ele>
        <time>2021-10-05T10:46:00+02:00</time>
      </trkpt>
      <trkpt lat="50.4166" lon="2.61237">
        <ele>160</ele>
        <time>2021-10-05T10:46:05+02:00</time>
      </trkpt>
      <trkpt lat="50.41541" lon="2.61201">
        <ele>157</ele>
        <time>2021-10-05T10:46:10+02:00</time>
      </trkpt>
      <trkpt lat="50.41277" lon="2.61972">
        <ele>153</ele>
        <time>2021-10-05T10:46:15+02:00</time>
      </trkpt>
      <trkpt lat="50.41101" lon="2.62287">
        <ele>160</ele>
        <time>2021-10-05T10:46:20+02:00</time>
      </trkpt>
      <trkpt lat="50.41082" lon="2.62367">
        <ele>161</ele>
        <time>2021-10-05T10:46:25+02:00</time>
      </trkpt>
      <trkpt lat="50.41105" lon="2.62428">
        <ele>161</ele>
        <time>2021-10-05T10:46:30+02:00</time>
      </trkpt>
      <trkpt lat="50.40996" lon="2.62589">
        <ele>163</ele>
        <time>2021-10-05T10:46:35+02:00</time>
      </trkpt>
      <trkpt lat="50.40929" lon="2.62769">
        <ele>166</ele>
        <time>2021-10-05T10:46:40+02:00</time>
      </trkpt>
      <trkpt lat="50.40949" lon="2.62971">
        <ele>166</ele>
        <time>2021-10-05T10:46:45+02:00</time>
      </trkpt>
      <trkpt lat="50.40937" lon="2.63167">
        <ele>166</ele>
        <time>2021-10-05T10:46:50+02:00</time>
      </trkpt>
      <trkpt lat="50.40878" lon="2.63337">
        <ele>163</ele>
        <time>2021-10-05T10:46:55+02:00</time>
      </trkpt>
      <trkpt lat="50.40644" lon="2.63649">
        <ele>158</ele>
        <time>2021-10-05T10:47:00+02:00</time>
      </trkpt>
      <trkpt lat="50.40634" lon="2.63909">
        <ele>158</ele>
        <time>2021-10-05T10:47:05+02:00</time>
      </trkpt>
      <trkpt lat="50.40583" lon="2.6416">
        <ele>159</ele>
        <time>2021-10-05T10:47:10+02:00</time>
      </trkpt>
      <trkpt lat="50.40603" lon="2.64507">
        <ele>161</ele>
        <time>2021-10-05T10:47:15+02:00</time>
      </trkpt>
      <trkpt lat="50.40484" lon="2.64831">
        <ele>161</ele>
        <time>2021-10-05T10:47:20+02:00</time>
      </trkpt>
      <trkpt lat="50.40476" lon="2.6495">
        <ele>160</ele>
        <time>2021-10-05T10:47:25+02:00</time>
      </trkpt>
      <trkpt lat="50.40345" lon="2.64989">
        <ele>161</ele>
        <time>2021-10-05T10:47:30+02:00</time>
      </trkpt>
      <trkpt lat="50.40366" lon="2.65188">
        <ele>157</ele>
        <time>2021-10-05T10:47:35+02:00</time>
      </trkpt>
      <trkpt lat="50.40515" lon="2.65387">
        <ele>149</ele>
        <time>2021-10-05T10:47:40+02:00</time>
      </trkpt>
      <trkpt lat="50.40538" lon="2.65538">
        <ele>147</ele>
        <time>2021-10-05T10:47:45+02:00</time>
      </trkpt>
      <trkpt lat="50.40732" lon="2.65837">
        <ele>146</ele>
        <time>2021-10-05T10:47:50+02:00</time>
      </trkpt>
      <trkpt lat="50.40722" lon="2.65981">
        <ele>146</ele>
        <time>2021-10-05T10:47:55+02:00</time>
      </trkpt>
      <trkpt lat="50.40556" lon="2.66155">
        <ele>143</ele>
        <time>2021-10-05T10:48:00+02:00</time>
      </trkpt>
      <trkpt lat="50.40417" lon="2.66383">
        <ele>139</ele>
        <time>2021-10-05T10:48:05+02:00</time>
      </trkpt>
      <trkpt lat="50.40374" lon="2.66621">
        <ele>140</ele>
        <time>2021-10-05T10:48:10+02:00</time>
      </trkpt>
      <trkpt lat="50.40745" lon="2.66845">
        <ele>154</ele>
        <time>2021-10-05T10:48:15+02:00</time>
      </trkpt>
      <trkpt lat="50.40573" lon="2.67793">
        <ele>161</ele>
        <time>2021-10-05T10:48:20+02:00</time>
      </trkpt>
      <trkpt lat="50.40515" lon="2.6778">
        <ele>157</ele>
        <time>2021-10-05T10:48:25+02:00</time>
      </trkpt>
      <trkpt lat="50.4048" lon="2.67931">
        <ele>161</ele>
        <time>2021-10-05T10:48:30+02:00</time>
      </trkpt>
      <trkpt lat="50.40487" lon="2.68175">
        <ele>165</ele>
        <time>2021-10-05T10:48:35+02:00</time>
      </trkpt>
      <trkpt lat="50.4046" lon="2.68365">
        <ele>161</ele>
        <time>2021-10-05T10:48:40+02:00</time>
      </trkpt>
      <trkpt lat="50.40306" lon="2.68326">
        <ele>154</ele>
        <time>2021-10-05T10:48:45+02:00</time>
      </trkpt>
      <trkpt lat="50.40188" lon="2.68346">
        <ele>148</ele>
        <time>2021-10-05T10:48:50+02:00</time>
      </trkpt>
      <trkpt lat="50.40044" lon="2.68436">
        <ele>139</ele>
        <time>2021-10-05T10:48:55+02:00</time>
      </trkpt>
      <trkpt lat="50.39981" lon="2.68455">
        <ele>135</ele>
        <time>2021-10-05T10:49:00+02:00</time>
      </trkpt>
      <trkpt lat="50.39864" lon="2.68538">
        <ele>124</ele>
        <time>2021-10-05T10:49:05+02:00</time>
      </trkpt>
      <trkpt lat="50.39878" lon="2.68786">
        <ele>126</ele>
        <time>2021-10-05T10:49:10+02:00</time>
      </trkpt>
      <trkpt lat="50.39821" lon="2.69065">
        <ele>118</ele>
        <time>2021-10-05T10:49:15+02:00</time>
      </trkpt>
      <trkpt lat="50.39778" lon="2.6921">
        <ele>117</ele>
        <time>2021-10-05T10:49:20+02:00</time>
      </trkpt>
      <trkpt lat="50.39749" lon="2.69476">
        <ele>110</ele>
        <time>2021-10-05T10:49:25+02:00</time>
      </trkpt>
      <trkpt lat="50.39706" lon="2.6957">
        <ele>108</ele>
        <time>2021-10-05T10:49:30+02:00</time>
      </trkpt>
      <trkpt lat="50.40378" lon="2.69711">
        <ele>182</ele>
        <time>2021-10-05T10:49:35+02:00</time>
      </trkpt>
      <trkpt lat="50.40323" lon="2.70023">
        <ele>189</ele>
        <time>2021-10-05T10:49:40+02:00</time>
      </trkpt>
      <trkpt lat="50.40284" lon="2.70347">
        <ele>178</ele>
        <time>2021-10-05T10:49:45+02:00</time>
      </trkpt>
      <trkpt lat="50.40278" lon="2.70553">
        <ele>180</ele>
        <time>2021-10-05T10:49:50+02:00</time>
      </trkpt>
      <trkpt lat="50.40198" lon="2.70858">
        <ele>179</ele>
        <time>2021-10-05T10:49:55+02:00</time>
      </trkpt>
      <trkpt lat="50.40083" lon="2.71144">
        <ele>175</ele>
        <time>2021-10-05T10:50:00+02:00</time>
      </trkpt>
      <trkpt lat="50.40022" lon="2.71369">
        <ele>175</ele>
        <time>2021-10-05T10:50:05+02:00</time>
      </trkpt>
      <trkpt lat="50.39979" lon="2.71391">
        <ele>171</ele>
        <time>2021-10-05T10:50:10+02:00</time>
      </trkpt>
      <trkpt lat="50.3994" lon="2.71574">
        <ele>169</ele>
        <time>2021-10-05T10:50:15+02:00</time>
      </trkpt>
      <trkpt lat="50.39962" lon="2.71751">
        <ele>167</ele>
        <time>2021-10-05T10:50:20+02:00</time>
      </trkpt>
      <trkpt lat="50.39899" lon="2.71789">
        <ele>155</ele>
        <time>2021-10-05T10:50:25+02:00</time>
      </trkpt>
      <trkpt lat="50.39596" lon="2.7169">
        <ele>127</ele>
        <time>2021-10-05T10:50:30+02:00</time>
      </trkpt>
      <trkpt lat="50.39452" lon="2.71687">
        <ele>110</ele>
        <time>2021-10-05T10:50:35+02:00</time>
      </trkpt>
      <trkpt lat="50.39385" lon="2.72124">
        <ele>91</ele>
        <time>2021-10-05T10:50:40+02:00</time>
      </trkpt>
      <trkpt lat="50.39377" lon="2.72326">
        <ele>92</ele>
        <time>2021-10-05T10:50:45+02:00</time>
      </trkpt>
      <trkpt lat="50.39323" lon="2.72686">
        <ele>86</ele>
        <time>2021-10-05T10:50:50+02:00</time>
      </trkpt>
      <trkpt lat="50.39348" lon="2.72843">
        <ele>87</ele>
        <time>2021-10-05T10:50:55+02:00</time>
      </trkpt>
      <trkpt lat="50.39403" lon="2.73116">
        <ele>94</ele>
        <time>2021-10-05T10:51:00+02:00</time>
      </trkpt>
      <trkpt lat="50.39635" lon="2.73463">
        <ele>98</ele>
        <time>2021-10-05T10:51:05+02:00</time>
      </trkpt>
      <trkpt lat="50.39463" lon="2.73794">
        <ele>92</ele>
        <time>2021-10-05T10:51:10+02:00</time>
      </trkpt>
      <trkpt lat="50.39338" lon="2.7391">
        <ele>88</ele>
        <time>2021-10-05T10:51:15+02:00</time>
      </trkpt>
      <trkpt lat="50.39135" lon="2.73993">
        <ele>76</ele>
        <time>2021-10-05T10:51:20+02:00</time>
      </trkpt>
      <trkpt lat="50.39147" lon="2.7417">
        <ele>74</ele>
        <time>2021-10-05T10:51:25+02:00</time>
      </trkpt>
      <trkpt lat="50.38818" lon="2.74292">
        <ele>84</ele>
        <time>2021-10-05T10:51:30+02:00</time>
      </trkpt>
      <trkpt lat="50.38592" lon="2.74424">
        <ele>96</ele>
        <time>2021-10-05T10:51:35+02:00</time>
      </trkpt>
      <trkpt lat="50.38467" lon="2.74266">
        <ele>107</ele>
        <time>2021-10-05T10:51:40+02:00</time>
      </trkpt>
      <trkpt lat="50.38279" lon="2.73916">
        <ele>112</ele>
        <time>2021-10-05T10:51:45+02:00</time>
      </trkpt>
      <trkpt lat="50.38168" lon="2.73772">
        <ele>116</ele>
        <time>2021-10-05T10:51:50+02:00</time>
      </trkpt>
      <trkpt lat="50.37972" lon="2.73241">
        <ele>118</ele>
        <time>2021-10-05T10:51:55+02:00</time>
      </trkpt>
      <trkpt lat="50.37892" lon="2.72943">
        <ele>126</ele>
        <time>2021-10-05T10:52:00+02:00</time>
      </trkpt>
      <trkpt lat="50.37773" lon="2.7266">
        <ele>132</ele>
        <time>2021-10-05T10:52:05+02:00</time>
      </trkpt>
      <trkpt lat="50.37718" lon="2.72454">
        <ele>135</ele>
        <time>2021-10-05T10:52:10+02:00</time>
      </trkpt>
      <trkpt lat="50.375" lon="2.7223">
        <ele>136</ele>
        <time>2021-10-05T10:52:15+02:00</time>
      </trkpt>
      <trkpt lat="50.37279" lon="2.71956">
        <ele>129</ele>
        <time>2021-10-05T10:52:20+02:00</time>
      </trkpt>
      <trkpt lat="50.37125" lon="2.71793">
        <ele>126</ele>
        <time>2021-10-05T10:52:25+02:00</time>
      </trkpt>
      <trkpt lat="50.37023" lon="2.71722">
        <ele>123</ele>
        <time>2021-10-05T10:52:30+02:00</time>
      </trkpt>
      <trkpt lat="50.36697" lon="2.71292">
        <ele>120</ele>
        <time>2021-10-05T10:52:35+02:00</time>
      </trkpt>
      <trkpt lat="50.36646" lon="2.71346">
        <ele>120</ele>
        <time>2021-10-05T10:52:40+02:00</time>
      </trkpt>
      <trkpt lat="50.36546" lon="2.715">
        <ele>132</ele>
        <time>2021-10-05T10:52:45+02:00</time>
      </trkpt>
      <trkpt lat="50.36449" lon="2.7152">
        <ele>133</ele>
        <time>2021-10-05T10:52:50+02:00</time>
      </trkpt>
      <trkpt lat="50.36289" lon="2.7161">
        <ele>129</ele>
        <time>2021-10-05T10:52:55+02:00</time>
      </trkpt>
      <trkpt lat="50.36068" lon="2.71619">
        <ele>110</ele>
        <time>2021-10-05T10:53:00+02:00</time>
      </trkpt>
      <trkpt lat="50.35691" lon="2.71825">
        <ele>104</ele>
        <time>2021-10-05T10:53:05+02:00</time>
      </trkpt>
      <trkpt lat="50.35627" lon="2.71699">
        <ele>104</ele>
        <time>2021-10-05T10:53:10+02:00</time>
      </trkpt>
      <trkpt lat="50.35547" lon="2.70822">
        <ele>98</ele>
        <time>2021-10-05T10:53:15+02:00</time>
      </trkpt>
      <trkpt lat="50.35627" lon="2.70681">
        <ele>101</ele>
        <time>2021-10-05T10:53:20+02:00</time>
      </trkpt>
      <trkpt lat="50.35406" lon="2.70302">
        <ele>101</ele>
        <time>2021-10-05T10:53:25+02:00</time>
      </trkpt>
      <trkpt lat="50.35254" lon="2.6975">
        <ele>112</ele>
        <time>2021-10-05T10:53:30+02:00</time>
      </trkpt>
      <trkpt lat="50.3516" lon="2.69451">
        <ele>135</ele>
        <time>2021-10-05T10:53:35+02:00</time>
      </trkpt>
      <trkpt lat="50.35029" lon="2.69258">
        <ele>135</ele>
        <time>2021-10-05T10:53:40+02:00</time>
      </trkpt>
      <trkpt lat="50.35062" lon="2.69004">
        <ele>118</ele>
        <time>2021-10-05T10:53:45+02:00</time>
      </trkpt>
      <trkpt lat="50.34994" lon="2.6894">
        <ele>112</ele>
        <time>2021-10-05T10:53:50+02:00</time>
      </trkpt>
      <trkpt lat="50.34914" lon="2.68728">
        <ele>95</ele>
        <time>2021-10-05T10:53:55+02:00</time>
      </trkpt>
      <trkpt lat="50.34937" lon="2.68686">
        <ele>91</ele>
        <time>2021-10-05T10:54:00+02:00</time>
      </trkpt>
      <trkpt lat="50.34898" lon="2.68654">
        <ele>87</ele>
        <time>2021-10-05T10:54:05+02:00</time>
      </trkpt>
      <trkpt lat="50.34623" lon="2.68603">
        <ele>79</ele>
        <time>2021-10-05T10:54:10+02:00</time>
      </trkpt>
      <trkpt lat="50.34543" lon="2.68596">
        <ele>77</ele>
        <time>2021-10-05T10:54:15+02:00</time>
      </trkpt>
      <trkpt lat="50.34529" lon="2.68673">
        <ele>78</ele>
        <time>2021-10-05T10:54:20+02:00</time>
      </trkpt>
      <trkpt lat="50.34469" lon="2.68632">
        <ele>77</ele>
        <time>2021-10-05T10:54:25+02:00</time>
      </trkpt>
      <trkpt lat="50.34465" lon="2.68683">
        <ele>77</ele>
        <time>2021-10-05T10:54:30+02:00</time>
      </trkpt>
      <trkpt lat="50.34283" lon="2.68738">
        <ele>83</ele>
        <time>2021-10-05T10:54:35+02:00</time>
      </trkpt>
      <trkpt lat="50.34174" lon="2.68705">
        <ele>78</ele>
        <time>2021-10-05T10:54:40+02:00</time>
      </trkpt>
      <trkpt lat="50.33994" lon="2.69117">
        <ele>79</ele>
        <time>2021-10-05T10:54:45+02:00</time>
      </trkpt>
      <trkpt lat="50.33875" lon="2.69162">
        <ele>74</ele>
        <time>2021-10-05T10:54:50+02:00</time>
      </trkpt>
      <trkpt lat="50.33903" lon="2.69287">
        <ele>80</ele>
        <time>2021-10-05T10:54:55+02:00</time>
      </trkpt>
      <trkpt lat="50.33862" lon="2.69422">
        <ele>94</ele>
        <time>2021-10-05T10:55:00+02:00</time>
      </trkpt>
      <trkpt lat="50.33895" lon="2.701">
        <ele>100</ele>
        <time>2021-10-05T10:55:05+02:00</time>
      </trkpt>
      <trkpt lat="50.33852" lon="2.70337">
        <ele>103</ele>
        <time>2021-10-05T10:55:10+02:00</time>
      </trkpt>
      <trkpt lat="50.3384" lon="2.70476">
        <ele>105</ele>
        <time>2021-10-05T10:55:15+02:00</time>
      </trkpt>
      <trkpt lat="50.33536" lon="2.70151">
        <ele>115</ele>
        <time>2021-10-05T10:55:20+02:00</time>
      </trkpt>
      <trkpt lat="50.33397" lon="2.70235">
        <ele>108</ele>
        <time>2021-10-05T10:55:25+02:00</time>
      </trkpt>
      <trkpt lat="50.33266" lon="2.70373">
        <ele>91</ele>
        <time>2021-10-05T10:55:30+02:00</time>
      </trkpt>
      <trkpt lat="50.33083" lon="2.70459">
        <ele>91</ele>
        <time>2021-10-05T10:55:35+02:00</time>
      </trkpt>
      <trkpt lat="50.33001" lon="2.70562">
        <ele>93</ele>
        <time>2021-10-05T10:55:40+02:00</time>
      </trkpt>
      <trkpt lat="50.32962" lon="2.70537">
        <ele>94</ele>
        <time>2021-10-05T10:55:45+02:00</time>
      </trkpt>
      <trkpt lat="50.32829" lon="2.70659">
        <ele>92</ele>
        <time>2021-10-05T10:55:50+02:00</time>
      </trkpt>
    </trkseg>
  </trk>
</gpx>